createdAt,value
2019-04-04T00:01:36.136Z,36.00
2019-04-04T00:04:05.700Z,35.83
2019-04-04T00:06:35.231Z,39.88
2019-04-04T00:09:08.028Z,39.03
2019-04-04T00:11:37.577Z,39.38
2019-04-04T00:14:07.111Z,35.80
2019-04-04T00:16:36.641Z,35.87
2019-04-04T00:19:06.169Z,31.93
2019-04-04T00:21:35.688Z,34.47
2019-04-04T00:24:07.139Z,36.93
2019-04-04T00:26:36.568Z,36.30
2019-04-04T00:29:06.819Z,40.92
2019-04-04T00:31:36.363Z,44.13
2019-04-04T00:34:06.935Z,45.12
2019-04-04T00:36:36.470Z,46.70
2019-04-04T00:39:09.571Z,45.17
2019-04-04T00:41:39.470Z,49.20
2019-04-04T00:44:09.020Z,45.17
2019-04-04T00:46:38.580Z,43.38
2019-04-04T00:49:08.090Z,46.08
2019-04-04T00:51:39.071Z,44.25
2019-04-04T00:54:08.891Z,39.92
2019-04-04T00:56:38.410Z,37.17
2019-04-04T00:59:09.040Z,39.53
2019-04-04T01:01:38.641Z,41.20
2019-04-04T01:04:08.954Z,40.45
2019-04-04T01:06:38.474Z,35.75
2019-04-04T01:09:11.803Z,33.90
2019-04-04T01:11:39.309Z,34.43
2019-04-04T01:14:08.840Z,31.10
2019-04-04T01:16:38.450Z,33.10
2019-04-04T01:19:09.584Z,32.20
2019-04-04T01:21:39.243Z,30.52
2019-04-04T01:24:08.782Z,29.53
2019-04-04T01:26:38.339Z,32.43
2019-04-04T01:29:10.246Z,28.07
2019-04-04T01:31:39.147Z,34.13
2019-04-04T01:34:08.674Z,32.23
2019-04-04T01:36:38.185Z,28.30
2019-04-04T01:39:08.098Z,28.73
2019-04-04T01:41:37.657Z,30.60
2019-04-04T01:44:08.994Z,27.00
2019-04-04T01:46:38.448Z,27.37
2019-04-04T01:49:08.049Z,27.52
2019-04-04T01:51:37.568Z,30.77
2019-04-04T01:54:07.194Z,26.20
2019-04-04T01:56:37.712Z,26.60
2019-04-04T01:59:07.333Z,26.62
2019-04-04T02:01:36.912Z,26.68
2019-04-04T02:04:06.522Z,25.92
2019-04-04T02:06:36.054Z,25.33
2019-04-04T02:09:07.154Z,23.70
2019-04-04T02:11:37.634Z,23.77
2019-04-04T02:14:07.725Z,15.95
2019-04-04T02:16:37.269Z,60.45
2019-04-04T02:19:06.802Z,13.32
2019-04-04T02:21:36.421Z,11.25
2019-04-04T02:24:06.032Z,11.20
2019-04-04T02:26:36.147Z,31.10
2019-04-04T02:29:06.366Z,37.17
2019-04-04T02:31:39.636Z,16.97
2019-04-04T02:34:09.181Z,13.08
2019-04-04T02:36:38.717Z,19.37
2019-04-04T02:39:10.615Z,12.75
2019-04-04T02:41:40.148Z,15.65
2019-04-04T02:44:09.651Z,16.90
2019-04-04T02:46:44.299Z,16.80
2019-04-04T02:49:10.589Z,21.23
2019-04-04T02:51:41.337Z,18.87
2019-04-04T02:54:11.234Z,24.47
2019-04-04T02:56:40.759Z,29.25
2019-04-04T02:59:10.302Z,32.17
2019-04-04T03:01:39.994Z,32.30
2019-04-04T03:04:13.568Z,33.67
2019-04-04T03:06:41.815Z,29.40
2019-04-04T03:09:11.355Z,30.05
2019-04-04T03:11:40.891Z,32.73
2019-04-04T03:14:10.489Z,30.55
2019-04-04T03:16:40.045Z,31.40
2019-04-04T03:19:10.897Z,34.60
2019-04-04T03:21:40.819Z,32.30
2019-04-04T03:24:10.352Z,29.43
2019-04-04T03:26:39.905Z,28.67
2019-04-04T03:29:10.597Z,30.27
2019-04-04T03:31:40.470Z,33.20
2019-04-04T03:34:12.426Z,29.27
2019-04-04T03:36:41.359Z,28.33
2019-04-04T03:39:10.898Z,29.50
2019-04-04T03:41:40.470Z,28.93
2019-04-04T03:44:09.994Z,27.37
2019-04-04T03:46:39.607Z,30.67
2019-04-04T03:49:09.141Z,29.20
2019-04-04T03:51:38.656Z,25.43
2019-04-04T03:54:22.200Z,26.17
2019-04-04T03:56:50.066Z,27.58
2019-04-04T03:59:19.606Z,23.73
2019-04-04T04:01:49.129Z,26.00
2019-04-04T04:04:18.662Z,25.82
2019-04-04T04:06:49.127Z,26.70
2019-04-04T04:09:18.645Z,25.15
2019-04-04T04:11:48.187Z,24.20
2019-04-04T04:14:21.666Z,21.07
2019-04-04T04:16:49.062Z,23.77
2019-04-04T04:19:18.587Z,27.43
2019-04-04T04:21:48.119Z,24.15
2019-04-04T04:24:17.626Z,25.27
2019-04-04T04:26:47.166Z,25.17
2019-04-04T04:29:16.753Z,24.23
2019-04-04T04:31:49.282Z,27.73
2019-04-04T04:34:17.515Z,29.80
2019-04-04T04:36:48.061Z,26.45
2019-04-04T04:39:18.112Z,26.05
2019-04-04T04:41:47.644Z,25.37
2019-04-04T04:44:17.165Z,25.93
2019-04-04T04:46:49.720Z,28.23
2019-04-04T04:49:17.932Z,26.20
2019-04-04T04:51:47.468Z,27.73
2019-04-04T04:54:16.988Z,25.45
2019-04-04T04:56:46.503Z,31.67
2019-04-04T04:59:16.117Z,29.53
2019-04-04T05:01:45.630Z,34.10
2019-04-04T05:04:15.169Z,29.16
2019-04-04T05:06:44.698Z,29.50
2019-04-04T05:09:14.895Z,32.50
2019-04-04T05:11:44.478Z,27.50
2019-04-04T05:14:14.021Z,27.55
2019-04-04T05:16:43.666Z,27.87
2019-04-04T05:19:13.190Z,29.05
2019-04-04T05:21:42.758Z,31.07
2019-04-04T05:24:12.300Z,34.98
2019-04-04T05:26:41.842Z,33.85
2019-04-04T05:29:13.992Z,31.45
2019-04-04T05:31:42.644Z,32.70
2019-04-04T05:34:12.205Z,32.75
2019-04-04T05:36:41.816Z,33.70
2019-04-04T05:39:11.342Z,29.20
2019-04-04T05:41:40.910Z,31.33
2019-04-04T05:44:10.500Z,31.70
2019-04-04T05:46:40.034Z,33.43
2019-04-04T05:49:09.579Z,32.93
2019-04-04T05:51:39.103Z,37.25
2019-04-04T05:54:08.642Z,31.50
2019-04-04T05:56:39.150Z,29.30
2019-04-04T05:59:08.781Z,29.10
2019-04-04T06:01:38.349Z,29.70
2019-04-04T06:04:07.850Z,26.60
2019-04-04T06:06:37.690Z,27.40
2019-04-04T06:09:08.211Z,25.05
2019-04-04T06:11:37.737Z,25.85
2019-04-04T06:14:07.279Z,24.80
2019-04-04T06:16:36.825Z,26.37
2019-04-04T06:19:06.453Z,22.52
2019-04-04T06:21:35.999Z,24.35
2019-04-04T06:24:05.590Z,23.75
2019-04-04T06:26:36.061Z,21.63
2019-04-04T06:29:06.406Z,21.93
2019-04-04T06:31:35.924Z,27.50
2019-04-04T06:34:06.028Z,22.73
2019-04-04T06:36:36.858Z,23.20
2019-04-04T06:39:07.863Z,22.22
2019-04-04T06:41:37.741Z,20.40
2019-04-04T06:44:07.270Z,23.63
2019-04-04T06:46:36.782Z,24.67
2019-04-04T06:49:06.458Z,25.97
2019-04-04T06:51:35.959Z,24.27
2019-04-04T06:54:05.604Z,27.85
2019-04-04T06:56:35.106Z,30.12
2019-04-04T06:59:04.664Z,29.33
2019-04-04T07:01:34.260Z,26.93
2019-04-04T07:04:03.783Z,25.93
2019-04-04T07:06:33.293Z,25.88
2019-04-04T07:09:03.796Z,24.15
2019-04-04T07:11:35.217Z,27.58
2019-04-04T07:14:04.738Z,28.40
2019-04-04T07:16:36.891Z,32.10
2019-04-04T07:19:07.834Z,35.80
2019-04-04T07:21:36.788Z,36.40
2019-04-04T07:24:06.338Z,34.00
2019-04-04T07:26:35.845Z,32.15
2019-04-04T07:29:05.478Z,34.57
2019-04-04T07:31:37.998Z,32.93
2019-04-04T07:34:06.233Z,27.67
2019-04-04T07:36:35.739Z,34.03
2019-04-04T07:39:06.546Z,31.37
2019-04-04T07:41:38.015Z,27.42
2019-04-04T07:44:08.322Z,28.17
2019-04-04T07:46:40.786Z,30.37
2019-04-04T07:49:10.158Z,31.02
2019-04-04T07:51:39.673Z,30.08
2019-04-04T07:54:09.192Z,32.50
2019-04-04T07:56:38.736Z,27.70
2019-04-04T07:59:08.458Z,28.17
2019-04-04T08:01:45.691Z,27.65
2019-04-04T08:04:09.228Z,29.40
2019-04-04T08:06:38.757Z,27.63
2019-04-04T08:09:08.675Z,30.00
2019-04-04T08:11:38.226Z,27.10
2019-04-04T08:14:07.749Z,28.32
2019-04-04T08:16:37.285Z,26.80
2019-04-04T08:19:06.891Z,29.05
2019-04-04T08:21:36.401Z,27.90
2019-04-04T08:24:05.964Z,34.27
2019-04-04T08:26:35.499Z,35.90
2019-04-04T08:29:05.093Z,31.75
2019-04-04T08:31:34.612Z,36.25
2019-04-04T08:34:04.521Z,34.55
2019-04-04T08:36:35.794Z,37.13
2019-04-04T08:39:09.155Z,39.25
2019-04-04T08:41:38.716Z,38.17
2019-04-04T08:44:08.291Z,37.40
2019-04-04T08:46:37.826Z,37.07
2019-04-04T08:49:07.366Z,39.40
2019-04-04T08:51:36.905Z,38.10
2019-04-04T08:54:06.536Z,39.53
2019-04-04T08:56:36.077Z,36.57
2019-04-04T08:59:05.797Z,37.93
2019-04-04T09:01:35.308Z,36.43
2019-04-04T09:04:04.938Z,40.17
2019-04-04T09:06:34.480Z,35.60
2019-04-04T09:09:06.474Z,36.40
2019-04-04T09:11:36.071Z,35.13
2019-04-04T09:14:05.800Z,38.60
2019-04-04T09:16:35.330Z,34.70
2019-04-04T09:19:04.854Z,33.95
2019-04-04T09:21:34.377Z,35.05
2019-04-04T09:24:03.895Z,30.37
2019-04-04T09:26:33.509Z,31.45
2019-04-04T09:29:03.062Z,36.77
2019-04-04T09:31:32.593Z,30.07
2019-04-04T09:34:02.174Z,31.95
2019-04-04T09:36:31.709Z,32.38
2019-04-04T09:39:01.244Z,30.95
2019-04-04T09:41:31.344Z,32.43
2019-04-04T09:44:00.883Z,24.85
2019-04-04T09:46:30.387Z,26.02
2019-04-04T09:48:59.926Z,24.90
2019-04-04T09:51:29.552Z,25.93
2019-04-04T09:53:59.072Z,26.80
2019-04-04T09:56:28.674Z,25.80
2019-04-04T09:58:58.360Z,29.18
2019-04-04T10:01:27.977Z,24.43
2019-04-04T10:03:57.490Z,31.17
2019-04-04T10:06:27.012Z,29.25
2019-04-04T10:08:56.558Z,26.17
2019-04-04T10:11:26.085Z,28.00
2019-04-04T10:13:55.625Z,29.67
2019-04-04T10:16:25.175Z,26.73
2019-04-04T10:18:54.808Z,26.73
2019-04-04T10:21:24.365Z,23.87
2019-04-04T10:23:53.926Z,31.15
2019-04-04T10:26:23.452Z,29.45
2019-04-04T10:28:53.603Z,28.80
2019-04-04T10:31:23.146Z,29.23
2019-04-04T10:33:52.654Z,30.50
2019-04-04T10:36:22.178Z,30.80
2019-04-04T10:38:51.691Z,31.52
2019-04-04T10:41:21.246Z,31.95
2019-04-04T10:43:50.860Z,35.52
2019-04-04T10:46:20.420Z,36.68
2019-04-04T10:48:49.970Z,31.48
2019-04-04T10:51:19.519Z,34.23
2019-04-04T10:53:49.121Z,31.43
2019-04-04T10:56:18.682Z,30.77
2019-04-04T10:58:48.227Z,34.25
2019-04-04T11:01:17.781Z,30.65
2019-04-04T11:03:47.290Z,31.45
2019-04-04T11:06:16.821Z,30.48
2019-04-04T11:08:46.345Z,31.90
2019-04-04T11:11:15.901Z,32.73
2019-04-04T11:13:45.424Z,34.88
2019-04-04T11:16:14.966Z,32.57
2019-04-04T11:18:44.478Z,33.67
2019-04-04T11:21:14.020Z,37.07
2019-04-04T11:23:43.550Z,37.03
2019-04-04T11:26:13.098Z,32.28
2019-04-04T11:28:42.630Z,31.77
2019-04-04T11:31:12.167Z,32.67
2019-04-04T11:33:41.701Z,34.80
2019-04-04T11:36:11.239Z,39.60
2019-04-04T11:38:40.762Z,38.53
2019-04-04T11:41:10.293Z,37.73
2019-04-04T11:43:39.826Z,37.95
2019-04-04T11:46:09.363Z,40.10
2019-04-04T11:48:38.928Z,39.27
2019-04-04T11:51:08.496Z,42.83
2019-04-04T11:53:38.123Z,41.13
2019-04-04T11:56:07.667Z,43.00
2019-04-04T11:58:37.204Z,44.05
2019-04-04T12:01:08.857Z,45.65
2019-04-04T12:03:38.407Z,44.20
2019-04-04T12:06:08.013Z,43.80
2019-04-04T12:08:37.603Z,45.95
2019-04-04T12:11:07.131Z,45.70
2019-04-04T12:13:36.661Z,46.03
2019-04-04T12:16:06.265Z,43.87
2019-04-04T12:18:35.824Z,45.98
2019-04-04T12:21:05.404Z,49.33
2019-04-04T12:23:34.967Z,46.95
2019-04-04T12:26:04.656Z,50.03
2019-04-04T12:28:34.173Z,49.18
2019-04-04T12:31:04.483Z,49.25
2019-04-04T12:33:33.998Z,47.30
2019-04-04T12:36:03.593Z,49.85
2019-04-04T12:38:33.208Z,53.33
2019-04-04T12:41:02.736Z,52.58
2019-04-04T12:43:32.300Z,50.00
2019-04-04T12:46:01.863Z,51.56
2019-04-04T12:48:31.414Z,53.15
2019-04-04T12:51:00.964Z,52.60
2019-04-04T12:53:32.717Z,54.77
2019-04-04T12:56:01.722Z,54.30
2019-04-04T12:58:32.253Z,56.58
2019-04-04T13:01:01.769Z,53.83
2019-04-04T13:03:31.320Z,56.30
2019-04-04T13:06:00.866Z,57.15
2019-04-04T13:08:30.759Z,58.90
2019-04-04T13:11:00.410Z,56.60
2019-04-04T13:13:31.016Z,62.57
2019-04-04T13:16:00.550Z,64.50
2019-04-04T13:18:30.155Z,59.80
2019-04-04T13:20:59.768Z,56.70
2019-04-04T13:23:30.351Z,57.66
2019-04-04T13:25:59.870Z,57.83
2019-04-04T13:28:29.408Z,59.40
2019-04-04T13:30:58.975Z,55.53
2019-04-04T13:33:28.500Z,64.10
2019-04-04T13:35:58.020Z,63.20
2019-04-04T13:38:27.738Z,63.17
2019-04-04T13:40:57.261Z,64.00
2019-04-04T13:43:26.802Z,58.87
2019-04-04T13:45:56.339Z,59.05
2019-04-04T13:48:25.872Z,64.00
2019-04-04T13:50:55.483Z,63.40
2019-04-04T13:53:26.247Z,59.75
2019-04-04T13:55:59.132Z,59.37
2019-04-04T13:58:28.034Z,56.15
2019-04-04T14:00:57.694Z,56.90
2019-04-04T14:03:27.257Z,57.62
2019-04-04T14:05:56.777Z,58.83
2019-04-04T14:08:26.329Z,61.70
2019-04-04T14:10:58.377Z,57.00
2019-04-04T14:13:27.100Z,56.80
2019-04-04T14:15:56.621Z,55.20
2019-04-04T14:18:39.100Z,58.83
2019-04-04T14:21:03.716Z,60.48
2019-04-04T14:23:28.800Z,60.50
2019-04-04T14:25:59.976Z,59.93
2019-04-04T14:28:29.568Z,61.27
2019-04-04T14:30:59.175Z,60.37
2019-04-04T14:33:28.719Z,60.40
2019-04-04T14:35:58.404Z,59.40
2019-04-04T14:38:27.919Z,60.08
2019-04-04T14:41:10.221Z,61.18
2019-04-04T14:43:29.968Z,59.23
2019-04-04T14:45:59.946Z,62.07
2019-04-04T14:48:29.506Z,61.63
2019-04-04T14:50:59.025Z,67.33
2019-04-04T14:53:28.565Z,58.27
2019-04-04T14:55:58.085Z,55.67
2019-04-04T14:58:30.575Z,54.75
2019-04-04T15:01:00.137Z,58.40
2019-04-04T15:03:29.663Z,57.30
2019-04-04T15:05:59.181Z,52.83
2019-04-04T15:08:28.745Z,54.43
2019-04-04T15:10:58.264Z,55.85
2019-04-04T15:13:27.810Z,56.70
2019-04-04T15:16:16.359Z,58.73
2019-04-04T15:18:46.043Z,52.83
2019-04-04T15:21:15.665Z,58.63
2019-04-04T15:23:45.177Z,56.47
2019-04-04T15:26:14.695Z,56.68
2019-04-04T15:28:44.236Z,53.08
2019-04-04T15:31:13.753Z,58.25
2019-04-04T15:33:43.298Z,58.52
2019-04-04T15:36:12.825Z,63.70
2019-04-04T15:38:42.390Z,63.00
2019-04-04T15:41:11.902Z,65.97
2019-04-04T15:43:41.445Z,63.83
2019-04-04T15:46:11.640Z,66.97
2019-04-04T15:48:41.190Z,67.17
2019-04-04T15:51:10.720Z,69.03
2019-04-04T15:53:40.332Z,73.28
2019-04-04T15:56:09.877Z,69.40
2019-04-04T15:58:39.897Z,70.30
2019-04-04T16:01:09.474Z,73.30
2019-04-04T16:03:40.100Z,80.65
2019-04-04T16:06:09.708Z,80.70
2019-04-04T16:08:39.247Z,78.22
2019-04-04T16:11:08.798Z,80.60
2019-04-04T16:13:38.364Z,82.40
2019-04-04T16:16:08.075Z,82.20
2019-04-04T16:18:37.601Z,84.37
2019-04-04T16:21:07.193Z,86.73
2019-04-04T16:23:36.733Z,89.70
2019-04-04T16:26:06.337Z,88.03
2019-04-04T16:28:35.883Z,86.10
2019-04-04T16:31:05.483Z,81.78
2019-04-04T16:33:35.010Z,81.42
2019-04-04T16:36:05.556Z,84.17
2019-04-04T16:38:35.367Z,83.50
2019-04-04T16:41:04.990Z,83.93
2019-04-04T16:43:34.516Z,88.60
2019-04-04T16:46:04.117Z,90.00
2019-04-04T16:48:33.737Z,87.07
2019-04-04T16:51:03.271Z,90.20
2019-04-04T16:53:32.939Z,89.63
2019-04-04T16:56:02.450Z,91.27
2019-04-04T16:58:31.992Z,85.77
2019-04-04T17:01:01.538Z,82.20
2019-04-04T17:03:34.297Z,82.00
2019-04-04T17:06:03.387Z,81.75
2019-04-04T17:08:32.900Z,81.73
2019-04-04T17:11:02.814Z,83.37
2019-04-04T17:13:32.932Z,79.80
2019-04-04T17:16:02.493Z,80.97
2019-04-04T17:18:32.019Z,78.62
2019-04-04T17:21:01.992Z,77.15
2019-04-04T17:23:32.474Z,82.17
2019-04-04T17:26:02.021Z,79.77
2019-04-04T17:28:31.873Z,76.83
2019-04-04T17:31:01.462Z,78.03
2019-04-04T17:33:31.150Z,81.00
2019-04-04T17:36:00.775Z,77.43
2019-04-04T17:38:30.515Z,78.22
2019-04-04T17:41:00.154Z,77.40
2019-04-04T17:43:30.122Z,77.42
2019-04-04T17:45:59.953Z,81.13
2019-04-04T17:48:31.588Z,76.20
2019-04-04T17:51:00.936Z,80.93
2019-04-04T17:53:30.900Z,85.33
2019-04-04T17:56:00.843Z,91.05
2019-04-04T17:58:30.826Z,82.55
2019-04-04T18:01:01.022Z,87.50
2019-04-04T18:03:31.029Z,88.52
2019-04-04T18:06:00.570Z,90.28
2019-04-04T18:08:31.646Z,87.67
2019-04-04T18:11:01.168Z,85.90
2019-04-04T18:13:32.218Z,98.37
2019-04-04T18:16:01.909Z,87.88
2019-04-04T18:18:31.436Z,94.85
2019-04-04T18:21:00.954Z,97.30
2019-04-04T18:23:31.458Z,87.70
2019-04-04T18:26:01.969Z,92.95
2019-04-04T18:28:31.842Z,93.80
2019-04-04T18:31:01.478Z,95.92
2019-04-04T18:33:30.998Z,97.12
2019-04-04T18:36:00.532Z,88.75
2019-04-04T18:38:30.070Z,96.17
2019-04-04T18:40:59.619Z,86.00
2019-04-04T18:43:29.147Z,93.77
2019-04-04T18:45:58.694Z,101.55
2019-04-04T18:48:28.210Z,105.53
2019-04-04T18:50:57.766Z,103.97
2019-04-04T18:53:27.300Z,100.27
2019-04-04T18:55:56.842Z,95.50
2019-04-04T18:58:26.389Z,91.43
2019-04-04T19:00:55.934Z,93.17
2019-04-04T19:03:25.578Z,104.13
2019-04-04T19:05:55.176Z,88.20
2019-04-04T19:08:24.711Z,85.37
2019-04-04T19:10:54.301Z,89.00
2019-04-04T19:13:23.993Z,90.33
2019-04-04T19:15:53.518Z,94.67
2019-04-04T19:18:23.097Z,92.82
2019-04-04T19:20:52.645Z,92.45
2019-04-04T19:23:23.271Z,88.70
2019-04-04T19:25:52.919Z,88.70
2019-04-04T19:28:22.451Z,89.55
2019-04-04T19:30:52.031Z,97.60
2019-04-04T19:33:22.621Z,90.30
2019-04-04T19:35:52.160Z,88.58
2019-04-04T19:38:21.690Z,81.10
2019-04-04T19:40:51.245Z,86.75
2019-04-04T19:43:20.760Z,87.95
2019-04-04T19:45:50.315Z,90.53
2019-04-04T19:48:20.817Z,98.87
2019-04-04T19:50:51.075Z,90.25
2019-04-04T19:53:20.601Z,91.90
2019-04-04T19:55:50.119Z,86.03
2019-04-04T19:58:19.651Z,100.50
2019-04-04T20:00:50.375Z,93.20
2019-04-04T20:03:19.911Z,91.28
2019-04-04T20:05:49.491Z,81.72
2019-04-04T20:08:19.023Z,85.47
2019-04-04T20:10:48.574Z,86.73
2019-04-04T20:13:29.931Z,89.83
2019-04-04T20:15:49.372Z,82.97
2019-04-04T20:18:18.893Z,91.78
2019-04-04T20:20:48.491Z,88.27
2019-04-04T20:23:18.025Z,97.70
2019-04-04T20:25:47.634Z,91.83
2019-04-04T20:28:18.179Z,97.62
2019-04-04T20:30:47.690Z,98.05
2019-04-04T20:33:17.241Z,88.27
2019-04-04T20:35:46.942Z,88.35
2019-04-04T20:38:17.491Z,96.28
2019-04-04T20:40:47.000Z,88.90
2019-04-04T20:43:16.652Z,99.43
2019-04-04T20:45:46.216Z,97.53
2019-04-04T20:48:15.776Z,94.33
2019-04-04T20:50:45.303Z,96.20
2019-04-04T20:53:14.858Z,94.13
2019-04-04T20:55:44.435Z,93.37
2019-04-04T20:58:13.996Z,94.73
2019-04-04T21:00:43.575Z,88.50
2019-04-04T21:03:14.092Z,88.87
2019-04-04T21:05:43.626Z,83.85
2019-04-04T21:08:13.168Z,90.25
2019-04-04T21:10:42.683Z,87.15
2019-04-04T21:13:12.303Z,90.60
2019-04-04T21:15:42.823Z,86.60
2019-04-04T21:18:13.971Z,94.33
2019-04-04T21:20:43.767Z,90.75
2019-04-04T21:23:13.335Z,89.05
2019-04-04T21:25:42.896Z,94.80
2019-04-04T21:28:12.442Z,92.33
2019-04-04T21:30:42.226Z,91.22
2019-04-04T21:33:11.756Z,100.87
2019-04-04T21:35:41.269Z,99.22
2019-04-04T21:38:10.855Z,101.60
2019-04-04T21:40:40.375Z,102.32
2019-04-04T21:43:09.908Z,102.58
2019-04-04T21:45:39.539Z,98.65
2019-04-04T21:48:09.143Z,101.55
2019-04-04T21:50:38.654Z,102.30
2019-04-04T21:53:08.178Z,105.90
2019-04-04T21:55:37.692Z,98.97
2019-04-04T21:58:07.215Z,97.33
2019-04-04T22:00:44.152Z,104.63
2019-04-04T22:03:15.332Z,107.32
2019-04-04T22:05:44.911Z,102.62
2019-04-04T22:08:14.496Z,109.27
2019-04-04T22:10:44.024Z,102.42
2019-04-04T22:13:13.568Z,102.58
2019-04-04T22:15:43.546Z,106.20
2019-04-04T22:18:13.083Z,105.80
2019-04-04T22:20:42.718Z,105.58
2019-04-04T22:23:12.258Z,102.90
2019-04-04T22:25:41.780Z,106.30
2019-04-04T22:28:11.491Z,100.25
2019-04-04T22:30:41.980Z,95.30
2019-04-04T22:33:11.514Z,104.27
2019-04-04T22:35:41.056Z,101.30
2019-04-04T22:38:10.590Z,104.03
2019-04-04T22:40:40.096Z,101.85
2019-04-04T22:43:09.615Z,98.30
2019-04-04T22:45:39.118Z,105.90
2019-04-04T22:48:08.628Z,103.47
2019-04-04T22:50:38.139Z,98.60
2019-04-04T22:53:07.678Z,101.95
2019-04-04T22:55:37.247Z,104.07
2019-04-04T22:58:06.769Z,100.85
2019-04-04T23:00:36.389Z,102.35
2019-04-04T23:03:07.057Z,98.55
2019-04-04T23:05:36.584Z,101.67
2019-04-04T23:08:07.606Z,97.30
2019-04-04T23:10:37.354Z,106.20
2019-04-04T23:13:06.885Z,105.17
2019-04-04T23:15:36.414Z,97.60
2019-04-04T23:18:06.013Z,107.50
2019-04-04T23:20:35.549Z,102.17
2019-04-04T23:23:06.169Z,100.93
2019-04-04T23:25:35.742Z,104.40
2019-04-04T23:28:05.283Z,101.33
2019-04-04T23:30:35.236Z,99.05
2019-04-04T23:33:04.984Z,106.27
2019-04-04T23:35:34.508Z,105.47
2019-04-04T23:38:04.027Z,106.03
2019-04-04T23:40:33.552Z,103.45
2019-04-04T23:43:03.083Z,101.72
2019-04-04T23:45:32.582Z,102.20
2019-04-04T23:48:02.238Z,105.15
2019-04-04T23:50:31.748Z,107.20
2019-04-04T23:53:01.292Z,115.22
2019-04-04T23:55:30.808Z,114.77
2019-04-04T23:58:00.329Z,106.95
